sensor_id;sensor_type;location;lat;lon;timestamp;temperature;humidity
23267;DHT22;11802;53.160;8.214;2022-10-16T00:00:57;12.40;99.90
23267;DHT22;11802;53.160;8.214;2022-10-16T00:03:23;12.40;99.90
23267;DHT22;11802;53.160;8.214;2022-10-16T00:05:48;12.30;99.90
23267;DHT22;11802;53.160;8.214;2022-10-16T00:08:14;12.40;99.90
23267;DHT22;11802;53.160;8.214;2022-10-16T00:10:40;12.40;99.90
23267;DHT22;11802;53.160;8.214;2022-10-16T00:13:06;12.30;99.90
23267;DHT22;11802;53.160;8.214;2022-10-16T00:15:36;12.30;99.90
23267;DHT22;11802;53.160;8.214;2022-10-16T00:18:03;12.30;99.90
23267;DHT22;11802;53.160;8.214;2022-10-16T00:20:29;12.30;99.90
23267;DHT22;11802;53.160;8.214;2022-10-16T00:22:56;12.20;99.90
23267;DHT22;11802;53.160;8.214;2022-10-16T00:25:22;12.20;99.90
23267;DHT22;11802;53.160;8.214;2022-10-16T00:27:48;12.10;99.90
23267;DHT22;11802;53.160;8.214;2022-10-16T00:30:13;12.10;99.90
23267;DHT22;11802;53.160;8.214;2022-10-16T00:32:39;12.10;99.90
23267;DHT22;11802;53.160;8.214;2022-10-16T00:35:05;12.10;99.90
23267;DHT22;11802;53.160;8.214;2022-10-16T00:37:30;12.10;99.90
23267;DHT22;11802;53.160;8.214;2022-10-16T00:39:56;12.10;99.90
23267;DHT22;11802;53.160;8.214;2022-10-16T00:42:22;12.10;99.90
23267;DHT22;11802;53.160;8.214;2022-10-16T00:44:53;12.00;99.90
23267;DHT22;11802;53.160;8.214;2022-10-16T00:47:40;12.00;99.90
23267;DHT22;11802;53.160;8.214;2022-10-16T00:52:55;12.00;99.90
23267;DHT22;11802;53.160;8.214;2022-10-16T00:55:21;12.00;99.90
23267;DHT22;11802;53.160;8.214;2022-10-16T00:57:47;12.00;99.90
23267;DHT22;11802;53.160;8.214;2022-10-16T01:00:17;12.00;99.90
23267;DHT22;11802;53.160;8.214;2022-10-16T01:02:43;12.00;99.90
23267;DHT22;11802;53.160;8.214;2022-10-16T01:05:09;12.00;99.90
23267;DHT22;11802;53.160;8.214;2022-10-16T01:08:37;12.10;99.90
23267;DHT22;11802;53.160;8.214;2022-10-16T01:10:54;11.90;99.90
23267;DHT22;11802;53.160;8.214;2022-10-16T01:13:27;11.90;99.90
23267;DHT22;11802;53.160;8.214;2022-10-16T01:18:41;11.90;99.90
23267;DHT22;11802;53.160;8.214;2022-10-16T01:21:22;11.90;99.90
23267;DHT22;11802;53.160;8.214;2022-10-16T01:24:09;11.80;99.90
23267;DHT22;11802;53.160;8.214;2022-10-16T01:32:09;11.80;99.90
23267;DHT22;11802;53.160;8.214;2022-10-16T01:34:38;11.80;99.90
23267;DHT22;11802;53.160;8.214;2022-10-16T01:37:15;11.80;99.90
23267;DHT22;11802;53.160;8.214;2022-10-16T01:39:45;11.90;99.90
23267;DHT22;11802;53.160;8.214;2022-10-16T01:42:20;11.80;99.90
23267;DHT22;11802;53.160;8.214;2022-10-16T01:44:47;11.80;99.90
23267;DHT22;11802;53.160;8.214;2022-10-16T01:47:14;11.80;99.90
23267;DHT22;11802;53.160;8.214;2022-10-16T01:49:41;11.80;99.90
23267;DHT22;11802;53.160;8.214;2022-10-16T01:52:11;11.90;99.90
23267;DHT22;11802;53.160;8.214;2022-10-16T01:54:41;11.90;99.90
23267;DHT22;11802;53.160;8.214;2022-10-16T02:00:31;11.90;99.90
23267;DHT22;11802;53.160;8.214;2022-10-16T02:02:57;12.00;99.90
23267;DHT22;11802;53.160;8.214;2022-10-16T02:05:34;12.00;99.90
23267;DHT22;11802;53.160;8.214;2022-10-16T02:08:02;12.00;99.90
23267;DHT22;11802;53.160;8.214;2022-10-16T02:10:28;12.10;99.90
23267;DHT22;11802;53.160;8.214;2022-10-16T02:13:35;12.10;99.90
23267;DHT22;11802;53.160;8.214;2022-10-16T02:16:02;12.10;99.90
23267;DHT22;11802;53.160;8.214;2022-10-16T02:18:29;12.00;99.90
23267;DHT22;11802;53.160;8.214;2022-10-16T02:21:16;12.10;99.90
23267;DHT22;11802;53.160;8.214;2022-10-16T02:26:26;12.00;99.90
23267;DHT22;11802;53.160;8.214;2022-10-16T02:28:56;12.00;99.90
23267;DHT22;11802;53.160;8.214;2022-10-16T02:31:28;12.00;99.90
23267;DHT22;11802;53.160;8.214;2022-10-16T02:33:58;12.00;99.90
23267;DHT22;11802;53.160;8.214;2022-10-16T02:36:25;12.00;99.90
23267;DHT22;11802;53.160;8.214;2022-10-16T02:38:51;12.00;99.90
23267;DHT22;11802;53.160;8.214;2022-10-16T02:41:18;12.00;99.90
23267;DHT22;11802;53.160;8.214;2022-10-16T02:43:45;12.00;99.90
23267;DHT22;11802;53.160;8.214;2022-10-16T02:46:11;12.00;99.90
23267;DHT22;11802;53.160;8.214;2022-10-16T02:48:36;12.10;99.90
23267;DHT22;11802;53.160;8.214;2022-10-16T02:51:02;12.00;99.90
23267;DHT22;11802;53.160;8.214;2022-10-16T02:53:27;12.00;99.90
23267;DHT22;11802;53.160;8.214;2022-10-16T02:55:53;12.00;99.90
23267;DHT22;11802;53.160;8.214;2022-10-16T02:58:18;11.90;99.90
23267;DHT22;11802;53.160;8.214;2022-10-16T03:00:44;11.90;99.90
23267;DHT22;11802;53.160;8.214;2022-10-16T03:03:09;11.90;99.90
23267;DHT22;11802;53.160;8.214;2022-10-16T03:05:35;11.90;99.90
23267;DHT22;11802;53.160;8.214;2022-10-16T03:08:00;11.90;99.90
23267;DHT22;11802;53.160;8.214;2022-10-16T03:10:27;11.90;99.90
23267;DHT22;11802;53.160;8.214;2022-10-16T03:12:52;11.80;99.90
23267;DHT22;11802;53.160;8.214;2022-10-16T03:15:18;11.80;99.90
23267;DHT22;11802;53.160;8.214;2022-10-16T03:17:43;11.80;99.90
23267;DHT22;11802;53.160;8.214;2022-10-16T03:20:09;11.70;99.90
23267;DHT22;11802;53.160;8.214;2022-10-16T03:22:35;11.70;99.90
23267;DHT22;11802;53.160;8.214;2022-10-16T03:25:00;11.70;99.90
23267;DHT22;11802;53.160;8.214;2022-10-16T03:27:26;11.70;99.90
23267;DHT22;11802;53.160;8.214;2022-10-16T03:29:51;11.80;99.90
23267;DHT22;11802;53.160;8.214;2022-10-16T03:32:17;11.90;99.90
23267;DHT22;11802;53.160;8.214;2022-10-16T03:34:43;12.00;99.90
23267;DHT22;11802;53.160;8.214;2022-10-16T03:37:09;12.00;99.90
23267;DHT22;11802;53.160;8.214;2022-10-16T03:39:34;12.00;99.90
23267;DHT22;11802;53.160;8.214;2022-10-16T03:42:00;12.10;99.90
23267;DHT22;11802;53.160;8.214;2022-10-16T03:44:25;12.10;99.90
23267;DHT22;11802;53.160;8.214;2022-10-16T03:46:51;12.10;99.90
23267;DHT22;11802;53.160;8.214;2022-10-16T03:49:16;12.10;99.90
23267;DHT22;11802;53.160;8.214;2022-10-16T03:51:42;12.20;99.90
23267;DHT22;11802;53.160;8.214;2022-10-16T03:54:07;12.20;99.90
23267;DHT22;11802;53.160;8.214;2022-10-16T03:56:34;12.30;99.90
23267;DHT22;11802;53.160;8.214;2022-10-16T03:58:59;12.30;99.90
23267;DHT22;11802;53.160;8.214;2022-10-16T04:01:25;12.40;99.90
23267;DHT22;11802;53.160;8.214;2022-10-16T04:03:50;12.30;99.90
23267;DHT22;11802;53.160;8.214;2022-10-16T04:06:16;12.40;99.90
23267;DHT22;11802;53.160;8.214;2022-10-16T04:08:44;12.40;99.90
23267;DHT22;11802;53.160;8.214;2022-10-16T04:11:10;12.40;99.90
23267;DHT22;11802;53.160;8.214;2022-10-16T04:13:36;12.40;99.90
23267;DHT22;11802;53.160;8.214;2022-10-16T04:16:01;12.50;99.90
23267;DHT22;11802;53.160;8.214;2022-10-16T04:18:27;12.50;99.90
23267;DHT22;11802;53.160;8.214;2022-10-16T04:20:53;12.40;99.90
23267;DHT22;11802;53.160;8.214;2022-10-16T04:23:19;12.50;99.90
23267;DHT22;11802;53.160;8.214;2022-10-16T04:25:45;12.50;99.90
23267;DHT22;11802;53.160;8.214;2022-10-16T04:28:10;12.50;99.90
23267;DHT22;11802;53.160;8.214;2022-10-16T04:30:38;12.50;99.90
23267;DHT22;11802;53.160;8.214;2022-10-16T04:33:04;12.50;99.90
23267;DHT22;11802;53.160;8.214;2022-10-16T04:35:30;12.50;99.90
23267;DHT22;11802;53.160;8.214;2022-10-16T04:37:57;12.50;99.90
23267;DHT22;11802;53.160;8.214;2022-10-16T04:40:23;12.50;99.90
23267;DHT22;11802;53.160;8.214;2022-10-16T04:42:48;12.50;99.90
23267;DHT22;11802;53.160;8.214;2022-10-16T04:45:14;12.50;99.90
23267;DHT22;11802;53.160;8.214;2022-10-16T04:47:40;12.40;99.90
23267;DHT22;11802;53.160;8.214;2022-10-16T04:50:06;12.40;99.90
23267;DHT22;11802;53.160;8.214;2022-10-16T04:52:31;12.40;99.90
23267;DHT22;11802;53.160;8.214;2022-10-16T04:54:57;12.40;99.90
23267;DHT22;11802;53.160;8.214;2022-10-16T04:57:29;12.30;99.90
23267;DHT22;11802;53.160;8.214;2022-10-16T04:59:55;12.30;99.90
23267;DHT22;11802;53.160;8.214;2022-10-16T05:02:20;12.20;99.90
23267;DHT22;11802;53.160;8.214;2022-10-16T05:04:46;12.20;99.90
23267;DHT22;11802;53.160;8.214;2022-10-16T05:07:11;12.20;99.90
23267;DHT22;11802;53.160;8.214;2022-10-16T05:09:37;12.30;99.90
23267;DHT22;11802;53.160;8.214;2022-10-16T05:12:03;12.30;99.90
23267;DHT22;11802;53.160;8.214;2022-10-16T05:14:29;12.40;99.90
23267;DHT22;11802;53.160;8.214;2022-10-16T05:16:54;12.50;99.90
23267;DHT22;11802;53.160;8.214;2022-10-16T05:19:20;12.50;99.90
23267;DHT22;11802;53.160;8.214;2022-10-16T05:21:45;12.60;99.90
23267;DHT22;11802;53.160;8.214;2022-10-16T05:24:11;12.60;99.90
23267;DHT22;11802;53.160;8.214;2022-10-16T05:26:36;12.60;99.90
23267;DHT22;11802;53.160;8.214;2022-10-16T05:29:03;12.60;99.90
23267;DHT22;11802;53.160;8.214;2022-10-16T05:31:28;12.60;99.90
23267;DHT22;11802;53.160;8.214;2022-10-16T05:34:01;12.50;99.90
23267;DHT22;11802;53.160;8.214;2022-10-16T05:36:27;12.50;99.90
23267;DHT22;11802;53.160;8.214;2022-10-16T05:38:52;12.60;99.90
23267;DHT22;11802;53.160;8.214;2022-10-16T05:41:18;12.60;99.90
23267;DHT22;11802;53.160;8.214;2022-10-16T05:43:47;12.50;99.90
23267;DHT22;11802;53.160;8.214;2022-10-16T05:46:13;12.50;99.90
23267;DHT22;11802;53.160;8.214;2022-10-16T05:48:38;12.50;99.90
23267;DHT22;11802;53.160;8.214;2022-10-16T05:51:06;12.50;99.90
23267;DHT22;11802;53.160;8.214;2022-10-16T05:53:34;12.50;99.90
23267;DHT22;11802;53.160;8.214;2022-10-16T05:56:00;12.50;99.90
23267;DHT22;11802;53.160;8.214;2022-10-16T05:58:30;12.50;99.90
23267;DHT22;11802;53.160;8.214;2022-10-16T06:01:04;12.40;99.90
23267;DHT22;11802;53.160;8.214;2022-10-16T06:03:30;12.40;99.90
23267;DHT22;11802;53.160;8.214;2022-10-16T06:05:56;12.40;99.90
23267;DHT22;11802;53.160;8.214;2022-10-16T06:08:22;12.50;99.90
23267;DHT22;11802;53.160;8.214;2022-10-16T06:10:49;12.40;99.90
23267;DHT22;11802;53.160;8.214;2022-10-16T06:13:24;12.40;99.90
23267;DHT22;11802;53.160;8.214;2022-10-16T06:15:50;12.50;99.90
23267;DHT22;11802;53.160;8.214;2022-10-16T06:18:15;12.50;99.90
23267;DHT22;11802;53.160;8.214;2022-10-16T06:20:41;12.50;99.90
23267;DHT22;11802;53.160;8.214;2022-10-16T06:23:06;12.50;99.90
23267;DHT22;11802;53.160;8.214;2022-10-16T06:25:32;12.40;99.90
23267;DHT22;11802;53.160;8.214;2022-10-16T06:27:57;12.40;99.90
23267;DHT22;11802;53.160;8.214;2022-10-16T06:30:23;12.40;99.90
23267;DHT22;11802;53.160;8.214;2022-10-16T06:32:48;12.50;99.90
23267;DHT22;11802;53.160;8.214;2022-10-16T06:35:15;12.50;99.90
23267;DHT22;11802;53.160;8.214;2022-10-16T06:37:40;12.50;99.90
23267;DHT22;11802;53.160;8.214;2022-10-16T06:40:06;12.60;99.90
23267;DHT22;11802;53.160;8.214;2022-10-16T06:42:32;12.60;99.90
23267;DHT22;11802;53.160;8.214;2022-10-16T06:44:57;12.70;99.90
23267;DHT22;11802;53.160;8.214;2022-10-16T06:47:23;12.70;99.90
23267;DHT22;11802;53.160;8.214;2022-10-16T06:49:49;12.70;99.90
23267;DHT22;11802;53.160;8.214;2022-10-16T06:52:14;12.80;99.90
23267;DHT22;11802;53.160;8.214;2022-10-16T06:54:40;12.90;99.90
23267;DHT22;11802;53.160;8.214;2022-10-16T06:57:05;12.90;99.90
23267;DHT22;11802;53.160;8.214;2022-10-16T06:59:31;13.00;99.90
23267;DHT22;11802;53.160;8.214;2022-10-16T07:01:56;13.00;99.90
23267;DHT22;11802;53.160;8.214;2022-10-16T07:04:22;13.00;99.90
23267;DHT22;11802;53.160;8.214;2022-10-16T07:06:47;13.10;99.90
23267;DHT22;11802;53.160;8.214;2022-10-16T07:09:13;13.10;99.90
23267;DHT22;11802;53.160;8.214;2022-10-16T07:11:39;13.10;99.90
23267;DHT22;11802;53.160;8.214;2022-10-16T07:14:14;13.20;99.90
23267;DHT22;11802;53.160;8.214;2022-10-16T07:16:41;13.20;99.90
23267;DHT22;11802;53.160;8.214;2022-10-16T07:19:06;13.30;99.90
23267;DHT22;11802;53.160;8.214;2022-10-16T07:21:34;13.50;99.90
23267;DHT22;11802;53.160;8.214;2022-10-16T07:24:04;13.60;99.90
23267;DHT22;11802;53.160;8.214;2022-10-16T07:26:32;13.70;99.90
23267;DHT22;11802;53.160;8.214;2022-10-16T07:28:58;14.00;99.90
23267;DHT22;11802;53.160;8.214;2022-10-16T07:31:24;14.40;99.90
23267;DHT22;11802;53.160;8.214;2022-10-16T07:33:50;14.40;99.90
23267;DHT22;11802;53.160;8.214;2022-10-16T07:36:17;14.50;99.90
23267;DHT22;11802;53.160;8.214;2022-10-16T07:38:44;14.60;99.90
23267;DHT22;11802;53.160;8.214;2022-10-16T07:41:17;14.90;99.90
23267;DHT22;11802;53.160;8.214;2022-10-16T07:43:51;15.20;99.90
23267;DHT22;11802;53.160;8.214;2022-10-16T07:46:19;15.30;99.90
23267;DHT22;11802;53.160;8.214;2022-10-16T07:48:45;15.90;99.90
23267;DHT22;11802;53.160;8.214;2022-10-16T07:51:13;16.00;99.90
23267;DHT22;11802;53.160;8.214;2022-10-16T07:53:38;16.30;99.90
23267;DHT22;11802;53.160;8.214;2022-10-16T07:56:06;16.50;99.90
23267;DHT22;11802;53.160;8.214;2022-10-16T07:58:33;16.70;99.90
23267;DHT22;11802;53.160;8.214;2022-10-16T08:00:59;16.90;99.90
23267;DHT22;11802;53.160;8.214;2022-10-16T08:03:25;17.40;99.90
23267;DHT22;11802;53.160;8.214;2022-10-16T08:05:51;17.60;99.90
23267;DHT22;11802;53.160;8.214;2022-10-16T08:08:18;18.20;99.90
23267;DHT22;11802;53.160;8.214;2022-10-16T08:10:44;18.70;99.90
23267;DHT22;11802;53.160;8.214;2022-10-16T08:13:09;19.40;99.90
23267;DHT22;11802;53.160;8.214;2022-10-16T08:15:35;19.60;99.90
23267;DHT22;11802;53.160;8.214;2022-10-16T08:18:03;20.10;99.90
23267;DHT22;11802;53.160;8.214;2022-10-16T08:20:30;21.20;99.90
23267;DHT22;11802;53.160;8.214;2022-10-16T08:22:56;21.60;99.90
23267;DHT22;11802;53.160;8.214;2022-10-16T08:25:22;21.10;99.90
23267;DHT22;11802;53.160;8.214;2022-10-16T08:27:48;20.00;99.90
23267;DHT22;11802;53.160;8.214;2022-10-16T08:30:13;19.50;99.90
23267;DHT22;11802;53.160;8.214;2022-10-16T08:32:40;20.00;99.90
23267;DHT22;11802;53.160;8.214;2022-10-16T08:35:10;20.70;99.90
23267;DHT22;11802;53.160;8.214;2022-10-16T08:37:37;20.70;99.90
23267;DHT22;11802;53.160;8.214;2022-10-16T08:40:04;20.60;99.90
23267;DHT22;11802;53.160;8.214;2022-10-16T08:48:20;19.90;99.90
23267;DHT22;11802;53.160;8.214;2022-10-16T08:50:50;20.00;99.90
23267;DHT22;11802;53.160;8.214;2022-10-16T08:53:28;20.00;99.90
23267;DHT22;11802;53.160;8.214;2022-10-16T08:55:55;19.80;99.90
23267;DHT22;11802;53.160;8.214;2022-10-16T08:58:31;19.00;99.90
23267;DHT22;11802;53.160;8.214;2022-10-16T09:00:59;18.40;99.90
23267;DHT22;11802;53.160;8.214;2022-10-16T09:06:45;17.90;99.90
23267;DHT22;11802;53.160;8.214;2022-10-16T09:11:57;17.80;99.90
23267;DHT22;11802;53.160;8.214;2022-10-16T09:14:55;17.90;99.90
23267;DHT22;11802;53.160;8.214;2022-10-16T09:18:16;18.20;99.90
23267;DHT22;11802;53.160;8.214;2022-10-16T09:23:16;18.80;99.90
23267;DHT22;11802;53.160;8.214;2022-10-16T09:25:48;18.40;99.90
23267;DHT22;11802;53.160;8.214;2022-10-16T09:28:14;18.10;99.90
23267;DHT22;11802;53.160;8.214;2022-10-16T09:30:40;18.00;99.90
23267;DHT22;11802;53.160;8.214;2022-10-16T09:33:08;18.00;99.90
23267;DHT22;11802;53.160;8.214;2022-10-16T09:35:38;18.70;99.90
23267;DHT22;11802;53.160;8.214;2022-10-16T09:38:05;19.30;99.90
23267;DHT22;11802;53.160;8.214;2022-10-16T09:40:35;19.90;99.90
23267;DHT22;11802;53.160;8.214;2022-10-16T09:43:28;20.50;99.90
23267;DHT22;11802;53.160;8.214;2022-10-16T09:46:03;20.40;99.90
23267;DHT22;11802;53.160;8.214;2022-10-16T09:48:39;20.20;99.90
23267;DHT22;11802;53.160;8.214;2022-10-16T09:51:25;20.10;99.90
23267;DHT22;11802;53.160;8.214;2022-10-16T09:53:59;20.20;99.90
23267;DHT22;11802;53.160;8.214;2022-10-16T09:58:56;19.20;99.90
23267;DHT22;11802;53.160;8.214;2022-10-16T10:01:26;19.30;99.90
23267;DHT22;11802;53.160;8.214;2022-10-16T10:03:56;19.10;99.90
23267;DHT22;11802;53.160;8.214;2022-10-16T10:06:29;19.40;99.90
23267;DHT22;11802;53.160;8.214;2022-10-16T10:11:57;19.50;99.90
23267;DHT22;11802;53.160;8.214;2022-10-16T10:22:30;19.10;99.90
23267;DHT22;11802;53.160;8.214;2022-10-16T10:30:54;18.70;99.90
23267;DHT22;11802;53.160;8.214;2022-10-16T10:36:12;18.70;99.90
23267;DHT22;11802;53.160;8.214;2022-10-16T10:42:00;19.00;99.90
23267;DHT22;11802;53.160;8.214;2022-10-16T10:53:29;19.40;99.90
23267;DHT22;11802;53.160;8.214;2022-10-16T10:56:43;20.00;99.90
23267;DHT22;11802;53.160;8.214;2022-10-16T11:01:54;19.80;99.90
23267;DHT22;11802;53.160;8.214;2022-10-16T11:07:15;19.40;99.90
23267;DHT22;11802;53.160;8.214;2022-10-16T11:09:52;19.30;99.90
23267;DHT22;11802;53.160;8.214;2022-10-16T11:12:21;19.40;99.90
23267;DHT22;11802;53.160;8.214;2022-10-16T11:15:07;19.50;99.90
23267;DHT22;11802;53.160;8.214;2022-10-16T11:17:48;19.30;99.90
23267;DHT22;11802;53.160;8.214;2022-10-16T11:20:27;19.50;99.90
23267;DHT22;11802;53.160;8.214;2022-10-16T11:23:08;19.90;99.90
23267;DHT22;11802;53.160;8.214;2022-10-16T11:25:36;20.30;99.90
23267;DHT22;11802;53.160;8.214;2022-10-16T11:28:09;20.70;99.90
23267;DHT22;11802;53.160;8.214;2022-10-16T11:30:57;20.80;99.90
23267;DHT22;11802;53.160;8.214;2022-10-16T11:33:30;20.60;99.90
23267;DHT22;11802;53.160;8.214;2022-10-16T11:36:38;20.30;99.90
23267;DHT22;11802;53.160;8.214;2022-10-16T11:39:23;20.20;99.90
23267;DHT22;11802;53.160;8.214;2022-10-16T11:42:11;20.20;99.90
23267;DHT22;11802;53.160;8.214;2022-10-16T11:48:23;20.10;99.90
23267;DHT22;11802;53.160;8.214;2022-10-16T11:51:18;19.80;99.90
23267;DHT22;11802;53.160;8.214;2022-10-16T11:53:58;19.60;99.90
23267;DHT22;11802;53.160;8.214;2022-10-16T11:56:26;19.40;99.90
23267;DHT22;11802;53.160;8.214;2022-10-16T12:04:42;19.20;99.90
23267;DHT22;11802;53.160;8.214;2022-10-16T12:07:21;19.20;99.90
23267;DHT22;11802;53.160;8.214;2022-10-16T12:09:48;19.60;99.90
23267;DHT22;11802;53.160;8.214;2022-10-16T12:15:17;20.10;99.90
23267;DHT22;11802;53.160;8.214;2022-10-16T12:17:43;20.30;99.90
23267;DHT22;11802;53.160;8.214;2022-10-16T12:22:41;19.90;99.90
23267;DHT22;11802;53.160;8.214;2022-10-16T12:25:36;20.10;99.90
23267;DHT22;11802;53.160;8.214;2022-10-16T12:28:25;19.90;99.90
23267;DHT22;11802;53.160;8.214;2022-10-16T12:30:57;20.00;99.90
23267;DHT22;11802;53.160;8.214;2022-10-16T12:35:49;20.20;99.90
23267;DHT22;11802;53.160;8.214;2022-10-16T12:38:27;20.00;99.90
23267;DHT22;11802;53.160;8.214;2022-10-16T12:41:01;19.90;99.90
23267;DHT22;11802;53.160;8.214;2022-10-16T12:43:36;19.70;99.90
23267;DHT22;11802;53.160;8.214;2022-10-16T12:48:34;19.50;99.90
23267;DHT22;11802;53.160;8.214;2022-10-16T12:54:15;19.10;99.90
23267;DHT22;11802;53.160;8.214;2022-10-16T13:02:32;19.20;99.90
23267;DHT22;11802;53.160;8.214;2022-10-16T13:13:26;19.60;99.90
23267;DHT22;11802;53.160;8.214;2022-10-16T13:18:59;19.60;99.90
23267;DHT22;11802;53.160;8.214;2022-10-16T13:21:52;19.20;99.90
23267;DHT22;11802;53.160;8.214;2022-10-16T13:24:54;19.10;99.90
23267;DHT22;11802;53.160;8.214;2022-10-16T13:30:13;18.70;99.90
23267;DHT22;11802;53.160;8.214;2022-10-16T13:32:45;18.50;99.90
23267;DHT22;11802;53.160;8.214;2022-10-16T13:35:25;18.40;99.90
23267;DHT22;11802;53.160;8.214;2022-10-16T13:38:02;18.50;99.90
23267;DHT22;11802;53.160;8.214;2022-10-16T13:40:28;18.50;99.90
23267;DHT22;11802;53.160;8.214;2022-10-16T13:42:53;18.40;99.90
23267;DHT22;11802;53.160;8.214;2022-10-16T13:45:21;18.40;99.90
23267;DHT22;11802;53.160;8.214;2022-10-16T13:47:46;18.40;99.90
23267;DHT22;11802;53.160;8.214;2022-10-16T13:50:16;18.40;99.90
23267;DHT22;11802;53.160;8.214;2022-10-16T13:52:42;18.40;99.90
23267;DHT22;11802;53.160;8.214;2022-10-16T13:55:16;18.40;99.90
23267;DHT22;11802;53.160;8.214;2022-10-16T13:57:42;18.50;99.90
23267;DHT22;11802;53.160;8.214;2022-10-16T14:02:44;18.40;99.90
23267;DHT22;11802;53.160;8.214;2022-10-16T14:05:10;18.40;99.90
23267;DHT22;11802;53.160;8.214;2022-10-16T14:07:36;18.30;99.90
23267;DHT22;11802;53.160;8.214;2022-10-16T14:10:06;18.40;99.90
23267;DHT22;11802;53.160;8.214;2022-10-16T14:12:32;18.40;99.90
23267;DHT22;11802;53.160;8.214;2022-10-16T14:14:59;18.40;99.90
23267;DHT22;11802;53.160;8.214;2022-10-16T14:17:34;18.50;99.90
23267;DHT22;11802;53.160;8.214;2022-10-16T14:20:04;18.40;99.90
23267;DHT22;11802;53.160;8.214;2022-10-16T14:23:03;18.20;99.90
23267;DHT22;11802;53.160;8.214;2022-10-16T14:25:31;18.20;99.90
23267;DHT22;11802;53.160;8.214;2022-10-16T14:33:31;17.90;99.90
23267;DHT22;11802;53.160;8.214;2022-10-16T14:36:11;17.90;99.90
23267;DHT22;11802;53.160;8.214;2022-10-16T14:38:39;17.70;99.90
23267;DHT22;11802;53.160;8.214;2022-10-16T14:41:06;17.60;99.90
23267;DHT22;11802;53.160;8.214;2022-10-16T14:43:34;17.50;99.90
23267;DHT22;11802;53.160;8.214;2022-10-16T14:46:11;17.50;99.90
23267;DHT22;11802;53.160;8.214;2022-10-16T14:48:41;17.50;99.90
23267;DHT22;11802;53.160;8.214;2022-10-16T14:51:13;17.50;99.90
23267;DHT22;11802;53.160;8.214;2022-10-16T14:53:38;17.50;99.90
23267;DHT22;11802;53.160;8.214;2022-10-16T14:56:24;17.40;99.90
23267;DHT22;11802;53.160;8.214;2022-10-16T14:58:51;17.40;99.90
23267;DHT22;11802;53.160;8.214;2022-10-16T15:01:17;17.30;99.90
23267;DHT22;11802;53.160;8.214;2022-10-16T15:03:43;17.20;99.90
23267;DHT22;11802;53.160;8.214;2022-10-16T15:06:15;17.20;99.90
23267;DHT22;11802;53.160;8.214;2022-10-16T15:08:41;17.10;99.90
23267;DHT22;11802;53.160;8.214;2022-10-16T15:11:12;17.10;99.90
23267;DHT22;11802;53.160;8.214;2022-10-16T15:13:39;17.00;99.90
23267;DHT22;11802;53.160;8.214;2022-10-16T15:16:04;17.00;99.90
23267;DHT22;11802;53.160;8.214;2022-10-16T15:18:30;17.00;99.90
23267;DHT22;11802;53.160;8.214;2022-10-16T15:20:55;16.90;99.90
23267;DHT22;11802;53.160;8.214;2022-10-16T15:23:22;16.80;99.90
23267;DHT22;11802;53.160;8.214;2022-10-16T15:28:16;16.70;99.90
23267;DHT22;11802;53.160;8.214;2022-10-16T15:30:42;16.50;99.90
23267;DHT22;11802;53.160;8.214;2022-10-16T15:33:13;16.50;99.90
23267;DHT22;11802;53.160;8.214;2022-10-16T15:35:39;16.40;99.90
23267;DHT22;11802;53.160;8.214;2022-10-16T15:38:04;16.40;99.90
23267;DHT22;11802;53.160;8.214;2022-10-16T15:40:30;16.30;99.90
23267;DHT22;11802;53.160;8.214;2022-10-16T15:42:55;16.20;99.90
23267;DHT22;11802;53.160;8.214;2022-10-16T15:45:21;16.10;99.90
23267;DHT22;11802;53.160;8.214;2022-10-16T15:47:47;16.10;99.90
23267;DHT22;11802;53.160;8.214;2022-10-16T15:50:14;16.10;99.90
23267;DHT22;11802;53.160;8.214;2022-10-16T15:52:41;16.00;99.90
23267;DHT22;11802;53.160;8.214;2022-10-16T15:55:08;15.90;99.90
23267;DHT22;11802;53.160;8.214;2022-10-16T15:57:35;15.90;99.90
23267;DHT22;11802;53.160;8.214;2022-10-16T16:00:07;15.80;99.90
23267;DHT22;11802;53.160;8.214;2022-10-16T16:02:33;15.70;99.90
23267;DHT22;11802;53.160;8.214;2022-10-16T16:04:59;15.60;99.90
23267;DHT22;11802;53.160;8.214;2022-10-16T16:07:24;15.60;99.90
23267;DHT22;11802;53.160;8.214;2022-10-16T16:09:50;15.50;99.90
23267;DHT22;11802;53.160;8.214;2022-10-16T16:12:16;15.40;99.90
23267;DHT22;11802;53.160;8.214;2022-10-16T16:14:42;15.30;99.90
23267;DHT22;11802;53.160;8.214;2022-10-16T16:17:11;15.20;99.90
23267;DHT22;11802;53.160;8.214;2022-10-16T16:19:36;15.10;99.90
23267;DHT22;11802;53.160;8.214;2022-10-16T16:22:02;15.00;99.90
23267;DHT22;11802;53.160;8.214;2022-10-16T16:24:28;14.90;99.90
23267;DHT22;11802;53.160;8.214;2022-10-16T16:26:54;14.70;99.90
23267;DHT22;11802;53.160;8.214;2022-10-16T16:29:19;14.70;99.90
23267;DHT22;11802;53.160;8.214;2022-10-16T16:31:45;14.60;99.90
23267;DHT22;11802;53.160;8.214;2022-10-16T16:34:12;14.50;99.90
23267;DHT22;11802;53.160;8.214;2022-10-16T16:36:38;14.40;99.90
23267;DHT22;11802;53.160;8.214;2022-10-16T16:39:05;14.40;99.90
23267;DHT22;11802;53.160;8.214;2022-10-16T16:41:31;14.40;99.90
23267;DHT22;11802;53.160;8.214;2022-10-16T16:44:06;14.30;99.90
23267;DHT22;11802;53.160;8.214;2022-10-16T16:46:33;14.20;99.90
23267;DHT22;11802;53.160;8.214;2022-10-16T16:48:59;14.20;99.90
23267;DHT22;11802;53.160;8.214;2022-10-16T16:51:25;14.10;99.90
23267;DHT22;11802;53.160;8.214;2022-10-16T16:53:52;14.00;99.90
23267;DHT22;11802;53.160;8.214;2022-10-16T16:56:18;14.00;99.90
23267;DHT22;11802;53.160;8.214;2022-10-16T16:58:49;14.00;99.90
23267;DHT22;11802;53.160;8.214;2022-10-16T17:01:15;13.90;99.90
23267;DHT22;11802;53.160;8.214;2022-10-16T17:03:42;13.80;99.90
23267;DHT22;11802;53.160;8.214;2022-10-16T17:06:10;13.70;99.90
23267;DHT22;11802;53.160;8.214;2022-10-16T17:08:36;13.70;99.90
23267;DHT22;11802;53.160;8.214;2022-10-16T17:11:03;13.70;99.90
23267;DHT22;11802;53.160;8.214;2022-10-16T17:13:31;13.60;99.90
23267;DHT22;11802;53.160;8.214;2022-10-16T17:15:57;13.60;99.90
23267;DHT22;11802;53.160;8.214;2022-10-16T17:18:23;13.50;99.90
23267;DHT22;11802;53.160;8.214;2022-10-16T17:20:50;13.50;99.90
23267;DHT22;11802;53.160;8.214;2022-10-16T17:23:17;13.40;99.90
23267;DHT22;11802;53.160;8.214;2022-10-16T17:25:44;13.30;99.90
23267;DHT22;11802;53.160;8.214;2022-10-16T17:28:11;13.30;99.90
23267;DHT22;11802;53.160;8.214;2022-10-16T17:30:38;13.20;99.90
23267;DHT22;11802;53.160;8.214;2022-10-16T17:33:05;13.10;99.90
23267;DHT22;11802;53.160;8.214;2022-10-16T17:35:41;13.10;99.90
23267;DHT22;11802;53.160;8.214;2022-10-16T17:38:08;13.00;99.90
23267;DHT22;11802;53.160;8.214;2022-10-16T17:40:35;13.00;99.90
23267;DHT22;11802;53.160;8.214;2022-10-16T17:43:01;13.00;99.90
23267;DHT22;11802;53.160;8.214;2022-10-16T17:45:27;12.90;99.90
23267;DHT22;11802;53.160;8.214;2022-10-16T17:47:54;12.90;99.90